Time;durP1;ratioP1;P1;durP2;ratioP2;P2;SDS_P1;SDS_P2;PMS_P1;PMS_P2;Temp;Humidity;BMP_temperature;BMP_pressure;BME280_temperature;BME280_humidity;BME280_pressure;Samples;Min_cycle;Max_cycle;Signal;HPM_P1;HPM_P2
2023/08/15 00:45:42;;;;;;;24.90;20.40;;;;;;;19.80;71.88;98927.16;436258;1253;99291;-42
2023/08/15 00:55:49;;;;;;;25.90;19.50;;;;;;;19.73;72.24;98935.81;436449;1253;111516;-40
2023/08/15 01:05:57;;;;;;;26.10;19.00;;;;;;;19.55;72.56;98939.70;436407;1247;108215;-41
2023/08/15 01:26:17;;;;;;;24.20;18.00;;;;;;;19.22;73.42;98930.49;436201;1253;109523;-43
2023/08/15 01:36:20;;;;;;;24.40;19.20;;;;;;;19.07;73.92;98932.04;436365;1253;97917;-41
2023/08/15 01:46:28;;;;;;;24.20;16.90;;;;;;;18.95;74.45;98937.90;436385;1254;112960;-41
2023/08/15 01:56:36;;;;;;;24.20;17.40;;;;;;;18.88;74.65;98937.66;436261;1254;108167;-42
2023/08/15 02:06:43;;;;;;;22.50;17.10;;;;;;;18.81;74.92;98933.09;435311;1254;99228;-42
2023/08/15 02:16:50;;;;;;;21.40;18.30;;;;;;;18.69;74.97;98925.55;435427;1253;107467;-42
2023/08/15 02:26:58;;;;;;;26.30;19.50;;;;;;;18.55;75.42;98926.81;435335;1250;98802;-41
2023/08/15 02:37:05;;;;;;;25.80;16.80;;;;;;;18.44;76.00;98917.05;435309;1253;112165;-43
2023/08/15 02:47:12;;;;;;;22.60;16.90;;;;;;;18.44;76.29;98917.90;435023;1264;108186;-42
2023/08/15 02:57:19;;;;;;;27.20;19.20;;;;;;;18.47;76.82;98921.98;435157;1249;99353;-43
2023/08/15 03:07:27;;;;;;;21.90;17.50;;;;;;;18.51;77.09;98914.95;435197;1250;107694;-42
2023/08/15 03:27:41;;;;;;;25.60;19.80;;;;;;;18.56;77.29;98917.38;435528;1249;111618;-42
2023/08/15 03:37:48;;;;;;;25.20;19.20;;;;;;;18.65;76.90;98922.44;435200;1253;107191;-43
2023/08/15 03:47:55;;;;;;;28.20;18.70;;;;;;;18.67;76.79;98920.46;435434;1250;99243;-42
2023/08/15 04:08:06;;;;;;;21.00;16.60;;;;;;;18.86;76.56;98926.80;435330;1255;99963;-42
2023/08/15 04:18:13;;;;;;;20.20;17.40;;;;;;;19.33;76.32;98930.41;435346;1254;112190;-42
2023/08/15 04:28:20;;;;;;;19.50;17.10;;;;;;;19.69;76.06;98934.61;435311;1255;108075;-42
2023/08/15 04:38:27;;;;;;;22.50;16.30;;;;;;;20.32;75.83;98940.64;435228;1254;98068;-41
2023/08/15 04:48:32;;;;;;;22.20;16.40;;;;;;;21.56;75.02;98936.33;435300;1250;108187;-41
2023/08/15 04:58:40;;;;;;;25.40;16.60;;;;;;;22.05;73.54;98941.45;435359;1253;98940;-42
2023/08/15 05:08:46;;;;;;;21.70;16.00;;;;;;;22.70;72.84;98947.59;435404;1254;111616;-42
2023/08/15 05:18:53;;;;;;;17.20;15.30;;;;;;;23.76;71.04;98943.23;435450;1250;108149;-42
2023/08/15 05:29:00;;;;;;;17.40;13.70;;;;;;;24.60;69.03;98944.22;435372;1249;99238;-42
2023/08/15 05:39:07;;;;;;;18.30;13.80;;;;;;;25.08;66.75;98956.84;435206;1253;108543;-41
2023/08/15 05:59:19;;;;;;;16.50;12.40;;;;;;;25.96;63.47;98962.52;435429;1253;111927;-41
2023/08/15 06:09:27;;;;;;;14.50;10.20;;;;;;;26.56;61.93;98967.35;435351;1254;108479;-41
2023/08/15 06:19:34;;;;;;;12.60;9.80;;;;;;;27.15;60.59;98975.16;435368;1255;98779;-43
2023/08/15 06:29:41;;;;;;;11.00;7.80;;;;;;;27.79;59.16;98969.46;435255;1254;108473;-41
2023/08/15 06:39:48;;;;;;;10.10;7.50;;;;;;;28.48;58.04;98966.89;435264;1249;99234;-42
2023/08/15 06:49:55;;;;;;;11.30;7.40;;;;;;;29.21;56.90;98975.80;435244;1249;111809;-41
2023/08/15 07:00:01;;;;;;;8.70;7.60;;;;;;;29.75;55.34;98982.30;435278;1255;108607;-42
2023/08/15 07:10:10;;;;;;;9.50;6.90;;;;;;;29.54;53.48;98990.60;435357;1250;99194;-42
2023/08/15 07:30:23;;;;;;;8.60;6.40;;;;;;;29.95;52.50;98984.72;435346;1255;99248;-42
2023/08/15 07:50:37;;;;;;;7.90;6.80;;;;;;;30.70;51.19;98974.23;435333;1255;110071;-42
2023/08/15 08:00:44;;;;;;;9.30;5.30;;;;;;;31.02;50.69;98969.20;435562;1250;99212;-43
2023/08/15 08:10:51;;;;;;;7.20;5.00;;;;;;;31.35;49.43;98972.56;435424;1254;100716;-45
2023/08/15 08:20:57;;;;;;;7.40;5.30;;;;;;;31.76;48.92;98982.84;435236;1249;99217;-41
2023/08/15 08:41:10;;;;;;;6.10;4.60;;;;;;;32.55;47.36;98981.91;435381;1253;99347;-42
2023/08/15 08:51:18;;;;;;;8.40;5.30;;;;;;;32.64;46.43;98976.64;435405;1251;98921;-42
2023/08/15 09:01:26;;;;;;;5.40;4.80;;;;;;;32.86;45.20;98978.52;435217;1256;106929;-43
2023/08/15 09:11:36;;;;;;;5.80;4.30;;;;;;;32.89;44.72;98980.64;435407;1255;99221;-42
2023/08/15 09:21:57;;;;;;;6.10;5.50;;;;;;;32.52;43.53;98979.03;435223;1250;104304;-42
2023/08/15 09:32:05;;;;;;;4.60;4.20;;;;;;;32.29;43.19;98973.52;435116;1253;100763;-42
2023/08/15 09:42:16;;;;;;;10.60;4.10;;;;;;;32.32;42.53;98965.27;435317;1249;99877;-43
2023/08/15 09:52:21;;;;;;;6.90;3.80;;;;;;;32.54;41.75;98955.23;435928;1256;109045;-43
2023/08/15 10:02:28;;;;;;;5.60;3.80;;;;;;;32.72;41.12;98946.88;436325;1252;97981;-44
2023/08/15 10:12:35;;;;;;;6.20;3.20;;;;;;;33.23;41.55;98939.00;436415;1248;104312;-43
2023/08/15 10:22:44;;;;;;;5.00;3.70;;;;;;;33.33;40.12;98942.11;436378;1254;99881;-42
2023/08/15 10:32:52;;;;;;;5.20;3.60;;;;;;;32.92;38.83;98940.36;436363;1252;98329;-43
2023/08/15 11:03:30;;;;;;;4.50;3.40;;;;;;;32.37;37.99;98930.23;436220;1253;103111;-43
2023/08/15 11:13:37;;;;;;;7.80;3.50;;;;;;;32.58;38.13;98925.80;436351;1261;99993;-43
2023/08/15 11:23:45;;;;;;;4.20;3.80;;;;;;;32.52;36.61;98925.00;436352;1253;98412;-43
2023/08/15 11:44:07;;;;;;;6.30;3.90;;;;;;;32.91;36.90;98913.59;436408;1253;99195;-43
2023/08/15 12:24:34;;;;;;;4.00;3.40;;;;;;;32.23;34.89;98890.60;436211;1253;99940;-40
2023/08/15 12:44:49;;;;;;;7.80;3.90;;;;;;;32.36;35.56;98874.01;436141;1254;103535;-46
2023/08/15 12:54:56;;;;;;;4.80;4.30;;;;;;;32.35;35.74;98862.73;436238;1261;98951;-43
2023/08/15 13:15:12;;;;;;;5.10;3.70;;;;;;;32.23;35.57;98864.20;436391;1253;100139;-42
2023/08/15 13:25:20;;;;;;;4.90;3.40;;;;;;;32.06;34.77;98853.05;436351;1252;97952;-43
2023/08/15 13:55:43;;;;;;;3.90;3.60;;;;;;;31.74;35.84;98854.55;436368;1254;99371;-42
2023/08/15 14:05:50;;;;;;;6.30;3.80;;;;;;;31.83;36.04;98845.88;436074;1253;100813;-42
2023/08/15 14:15:57;;;;;;;7.90;4.10;;;;;;;31.72;36.06;98852.50;436132;1254;99094;-42
2023/08/15 14:26:04;;;;;;;6.00;4.30;;;;;;;31.62;35.85;98850.33;436153;1261;103558;-41
2023/08/15 14:36:12;;;;;;;7.70;4.80;;;;;;;31.55;36.10;98847.80;436245;1254;100008;-41
2023/08/15 14:46:20;;;;;;;7.20;4.40;;;;;;;31.45;35.91;98841.84;436466;1248;99328;-41
2023/08/15 14:56:27;;;;;;;4.80;4.40;;;;;;;31.39;35.75;98839.30;435502;1263;99992;-43
2023/08/15 15:06:38;;;;;;;6.10;4.00;;;;;;;31.28;35.13;98833.48;435295;1254;98038;-42
2023/08/15 15:16:50;;;;;;;4.90;4.50;;;;;;;31.21;35.66;98824.05;435430;1253;110367;-42
2023/08/15 15:37:05;;;;;;;10.00;4.10;;;;;;;31.15;35.56;98808.62;435390;1253;98018;-43
2023/08/15 15:57:19;;;;;;;7.20;4.60;;;;;;;30.91;35.30;98788.44;435368;1254;98815;-40
2023/08/15 16:07:25;;;;;;;8.90;4.40;;;;;;;30.80;35.68;98783.54;435285;1253;111924;-42
2023/08/15 16:17:32;;;;;;;12.80;4.90;;;;;;;30.69;36.42;98780.19;435461;1254;107354;-41
2023/08/15 16:27:40;;;;;;;10.80;4.60;;;;;;;30.51;36.91;98778.08;435637;1254;99228;-42
2023/08/15 16:37:47;;;;;;;7.40;5.10;;;;;;;30.33;37.21;98767.70;435358;1255;108126;-42
2023/08/15 16:47:54;;;;;;;5.70;5.00;;;;;;;30.11;37.70;98767.00;435410;1254;99258;-42
2023/08/15 17:08:06;;;;;;;12.90;6.10;;;;;;;29.59;39.13;98767.30;435364;1251;107469;-42
2023/08/15 17:28:19;;;;;;;8.20;6.80;;;;;;;28.87;41.36;98765.41;435396;1251;107974;-43
2023/08/15 17:38:26;;;;;;;17.80;6.80;;;;;;;28.46;42.39;98767.96;435360;1251;98872;-42
2023/08/15 17:48:32;;;;;;;11.00;7.20;;;;;;;28.02;43.52;98779.11;435437;1250;112766;-43
2023/08/15 17:58:51;;;;;;;;;;;;;;;27.37;44.99;98785.75;435382;1249;108551;-42
2023/08/15 18:08:58;;;;;;;10.50;8.30;;;;;;;26.70;46.41;98803.89;435311;1250;98087;-42
2023/08/15 18:19:04;;;;;;;13.30;8.70;;;;;;;26.15;47.64;98826.28;435407;1256;108595;-42
2023/08/15 18:39:18;;;;;;;17.00;10.80;;;;;;;25.22;50.29;98853.86;435304;1254;111810;-41
2023/08/15 18:49:25;;;;;;;27.10;14.40;;;;;;;24.88;51.21;98866.42;435499;1253;107956;-42
2023/08/15 18:59:33;;;;;;;19.50;13.50;;;;;;;24.62;52.30;98878.73;436389;1248;99295;-41
2023/08/15 19:09:42;;;;;;;29.80;15.80;;;;;;;24.45;53.26;98883.95;436230;1248;108285;-41
2023/08/15 19:29:55;;;;;;;21.90;14.70;;;;;;;23.98;54.63;98883.13;436379;1253;111640;-41
2023/08/15 19:50:09;;;;;;;19.10;13.70;;;;;;;23.74;56.10;98889.80;436237;1253;99338;-41
2023/08/15 20:10:21;;;;;;;15.70;12.80;;;;;;;23.56;57.39;98886.56;436442;1248;99354;-41
2023/08/15 20:20:28;;;;;;;20.00;13.90;;;;;;;23.36;57.96;98887.74;436149;1253;112258;-43
2023/08/15 20:30:36;;;;;;;18.00;13.30;;;;;;;23.29;58.31;98884.90;436322;1248;108356;-42
2023/08/15 20:40:42;;;;;;;19.80;12.60;;;;;;;23.19;58.93;98880.70;436110;1254;99221;-43
2023/08/15 20:50:52;;;;;;;19.60;15.00;;;;;;;23.07;59.47;98882.02;436267;1247;109403;-43
2023/08/15 21:00:59;;;;;;;18.10;15.40;;;;;;;22.84;60.12;98879.20;436390;1247;99230;-42
2023/08/15 21:11:07;;;;;;;17.00;13.60;;;;;;;22.70;60.84;98877.81;436235;1253;112119;-42
2023/08/15 21:21:14;;;;;;;17.60;14.70;;;;;;;22.64;61.45;98871.83;436408;1253;107845;-42
2023/08/15 21:31:23;;;;;;;19.40;17.40;;;;;;;22.58;61.96;98869.71;436328;1247;98297;-41
2023/08/15 21:51:41;;;;;;;17.90;14.80;;;;;;;22.33;63.08;98880.05;436399;1253;99243;-42
2023/08/15 22:01:58;;;;;;;21.70;16.30;;;;;;;22.24;63.35;98881.46;436539;1248;112768;-42
2023/08/15 22:12:07;;;;;;;21.50;15.40;;;;;;;22.14;64.08;98887.59;436370;1252;109477;-42
2023/08/15 22:22:13;;;;;;;18.80;16.20;;;;;;;22.14;64.52;98880.01;436426;1247;98035;-41
2023/08/15 22:32:20;;;;;;;18.70;15.40;;;;;;;22.29;64.79;98887.89;436418;1247;106675;-41
2023/08/15 22:42:26;;;;;;;22.40;13.40;;;;;;;22.20;64.40;98878.74;436356;1248;98840;-42
2023/08/15 22:52:33;;;;;;;19.40;13.90;;;;;;;22.10;64.53;98875.28;436233;1253;111748;-41
2023/08/15 23:02:38;;;;;;;16.30;12.60;;;;;;;22.07;64.46;98874.73;436106;1247;108278;-41
2023/08/15 23:12:45;;;;;;;13.80;12.40;;;;;;;21.87;64.52;98871.00;436451;1253;98696;-42
2023/08/15 23:22:50;;;;;;;18.20;11.80;;;;;;;21.79;64.57;98870.92;436211;1252;108278;-41
2023/08/15 23:43:04;;;;;;;15.50;13.70;;;;;;;21.83;64.79;98857.34;436454;1248;111724;-41
2023/08/15 23:53:12;;;;;;;17.30;13.30;;;;;;;21.76;64.99;98856.65;435902;1253;108336;-42
